Terminal Aerodrome Forecast
Issued by NWS Tuscon, AZ

Home | Current Version | Previous Version | Text Only | Print | Product List | Glossary On
Versions: 1 2 3 4 5 6 7 8 9 10 11 12 13 14 15 16
252
FTUS45 KTWC 222337
TAFDUG
TAF
KDUG 222337Z 2300/2324 15006KT P6SM FEW080 SCT250
     FM230500 17006KT P6SM SCT250
     FM231600 19014G24KT P6SM BKN050
     FM232000 23020G30KT P6SM BKN050 OVC080=

USA.gov is the U.S. government's official web portal to all federal, state and local government web resources and services.